createdAt,value
2022-10-07T00:00:51.256Z,19.44
2022-10-07T00:03:19.769Z,19.37
2022-10-07T00:05:47.678Z,19.30
2022-10-07T00:08:15.612Z,19.31
2022-10-07T00:10:44.921Z,19.32
2022-10-07T00:13:13.131Z,19.36
2022-10-07T00:15:41.045Z,19.37
2022-10-07T00:18:09.036Z,19.38
2022-10-07T00:20:39.236Z,19.39
2022-10-07T00:23:07.834Z,19.39
2022-10-07T00:25:36.986Z,19.45
2022-10-07T00:28:06.367Z,19.49
2022-10-07T00:30:34.414Z,19.49
2022-10-07T00:33:02.339Z,19.47
2022-10-07T00:35:31.010Z,19.46
2022-10-07T00:37:59.317Z,19.44
2022-10-07T00:40:27.194Z,19.37
2022-10-07T00:42:55.062Z,19.35
2022-10-07T00:45:24.477Z,19.32
2022-10-07T00:47:52.421Z,19.30
2022-10-07T00:50:21.660Z,19.32
2022-10-07T00:52:52.067Z,19.34
2022-10-07T00:55:21.800Z,19.36
2022-10-07T00:57:50.063Z,19.43
2022-10-07T01:00:18.308Z,19.47
2022-10-07T01:02:48.759Z,19.53
2022-10-07T01:05:17.788Z,19.55
2022-10-07T01:07:46.871Z,19.59
2022-10-07T01:10:17.165Z,19.60
2022-10-07T01:12:51.505Z,19.61
2022-10-07T01:15:24.931Z,19.60
2022-10-07T01:17:57.648Z,19.64
2022-10-07T01:20:39.432Z,19.58
2022-10-07T01:23:14.742Z,19.66
2022-10-07T01:25:49.859Z,19.67
2022-10-07T01:28:21.027Z,19.62
2022-10-07T01:30:50.399Z,19.54
2022-10-07T01:33:19.452Z,19.46
2022-10-07T01:35:48.168Z,19.39
2022-10-07T01:38:18.001Z,19.28
2022-10-07T01:40:47.500Z,19.36
2022-10-07T01:43:15.656Z,19.14
2022-10-07T01:45:44.979Z,19.36
2022-10-07T01:48:12.898Z,19.38
2022-10-07T01:50:40.745Z,19.42
2022-10-07T01:53:20.330Z,19.46
2022-10-07T01:55:59.597Z,19.49
2022-10-07T01:58:38.385Z,19.54
2022-10-07T02:01:13.211Z,19.53
2022-10-07T02:04:08.868Z,19.56
2022-10-07T02:06:40.461Z,19.55
2022-10-07T02:09:13.004Z,19.56
2022-10-07T02:11:41.332Z,19.58
2022-10-07T02:14:11.151Z,19.57
2022-10-07T02:16:45.094Z,19.55
2022-10-07T02:19:15.503Z,19.55
2022-10-07T02:21:43.449Z,19.45
2022-10-07T02:24:12.036Z,19.55
2022-10-07T02:26:39.893Z,19.55
2022-10-07T02:29:08.953Z,19.47
2022-10-07T02:31:36.884Z,19.51
2022-10-07T02:34:06.119Z,19.50
2022-10-07T02:36:35.371Z,19.48
2022-10-07T02:39:03.733Z,19.43
2022-10-07T02:41:35.479Z,19.37
2022-10-07T02:44:10.765Z,19.30
2022-10-07T02:46:39.821Z,19.35
2022-10-07T02:49:09.659Z,19.27
2022-10-07T02:51:46.545Z,19.36
2022-10-07T02:54:14.406Z,19.37
2022-10-07T02:56:42.336Z,19.38
2022-10-07T02:59:11.016Z,19.29
2022-10-07T03:01:40.467Z,19.45
2022-10-07T03:04:09.787Z,19.47
2022-10-07T03:06:37.669Z,19.47
2022-10-07T03:09:05.640Z,19.44
2022-10-07T03:11:33.574Z,19.39
2022-10-07T03:14:01.810Z,19.37
2022-10-07T03:16:29.756Z,19.37
2022-10-07T03:18:58.943Z,19.34
2022-10-07T03:21:28.193Z,19.37
2022-10-07T03:23:56.174Z,19.37
2022-10-07T03:26:24.068Z,19.38
2022-10-07T03:28:51.950Z,19.38
2022-10-07T03:31:19.892Z,19.39
2022-10-07T03:33:47.951Z,19.39
2022-10-07T03:36:15.868Z,19.40
2022-10-07T03:38:45.206Z,19.41
2022-10-07T03:41:13.040Z,19.40
2022-10-07T03:43:41.065Z,19.39
2022-10-07T03:46:09.091Z,19.38
2022-10-07T03:48:37.006Z,19.40
2022-10-07T03:51:05.138Z,19.39
2022-10-07T03:53:32.996Z,19.36
2022-10-07T03:56:02.222Z,19.35
2022-10-07T03:58:30.456Z,19.37
2022-10-07T04:01:05.709Z,19.36
2022-10-07T04:03:33.578Z,19.32
2022-10-07T04:06:01.548Z,19.34
2022-10-07T04:08:29.737Z,19.34
2022-10-07T04:10:58.167Z,19.32
2022-10-07T04:13:27.436Z,19.29
2022-10-07T04:15:55.629Z,19.32
2022-10-07T04:18:23.532Z,19.30
2022-10-07T04:20:51.397Z,19.31
2022-10-07T04:23:19.261Z,19.33
2022-10-07T04:25:47.772Z,19.32
2022-10-07T04:28:17.390Z,19.32
2022-10-07T04:30:51.251Z,19.28
2022-10-07T04:33:19.290Z,19.33
2022-10-07T04:35:47.152Z,19.35
2022-10-07T04:38:15.884Z,19.35
2022-10-07T04:40:44.509Z,19.35
2022-10-07T04:43:23.426Z,19.38
2022-10-07T04:45:54.254Z,19.37
2022-10-07T04:48:23.188Z,19.35
2022-10-07T04:50:52.373Z,19.37
2022-10-07T04:53:20.340Z,19.39
2022-10-07T04:55:48.936Z,19.40
2022-10-07T04:58:16.918Z,19.41
2022-10-07T05:00:45.822Z,19.42
2022-10-07T05:03:15.676Z,19.42
2022-10-07T05:05:43.938Z,19.43
2022-10-07T05:08:12.497Z,19.41
2022-10-07T05:10:40.696Z,19.41
2022-10-07T05:13:09.472Z,19.46
2022-10-07T05:15:37.363Z,19.46
2022-10-07T05:18:06.459Z,19.43
2022-10-07T05:20:39.717Z,19.46
2022-10-07T05:23:07.624Z,19.46
2022-10-07T05:25:35.505Z,19.47
2022-10-07T05:28:03.435Z,19.46
2022-10-07T05:30:31.454Z,19.44
2022-10-07T05:32:59.469Z,19.43
2022-10-07T05:35:27.378Z,19.44
2022-10-07T05:37:56.938Z,19.44
2022-10-07T05:40:24.915Z,19.44
2022-10-07T05:42:52.809Z,19.41
2022-10-07T05:45:20.861Z,19.38
2022-10-07T05:47:53.734Z,19.15
2022-10-07T05:50:21.685Z,19.30
2022-10-07T05:52:51.927Z,19.29
2022-10-07T05:55:21.174Z,19.32
2022-10-07T05:57:49.749Z,19.21
2022-10-07T06:00:18.305Z,19.12
2022-10-07T06:02:46.696Z,19.26
2022-10-07T06:05:14.821Z,19.25
2022-10-07T06:07:42.941Z,19.28
2022-10-07T06:10:29.053Z,19.33
2022-10-07T06:13:10.646Z,19.25
2022-10-07T06:15:38.673Z,19.23
2022-10-07T06:18:06.705Z,19.23
2022-10-07T06:20:34.565Z,19.23
2022-10-07T06:23:02.701Z,19.20
2022-10-07T06:25:30.638Z,19.22
2022-10-07T06:28:03.260Z,19.19
2022-10-07T06:30:38.669Z,19.23
2022-10-07T06:33:06.641Z,19.22
2022-10-07T06:35:34.603Z,19.17
2022-10-07T06:38:04.967Z,19.17
2022-10-07T06:40:33.734Z,19.17
2022-10-07T06:43:03.424Z,19.13
2022-10-07T06:45:31.842Z,19.18
2022-10-07T06:47:59.916Z,19.21
2022-10-07T06:50:27.784Z,19.22
2022-10-07T06:52:55.691Z,19.23
2022-10-07T06:55:24.337Z,19.28
2022-10-07T06:57:53.656Z,19.29
2022-10-07T07:00:23.025Z,19.33
2022-10-07T07:02:51.164Z,19.34
2022-10-07T07:05:19.333Z,19.37
2022-10-07T07:07:47.737Z,19.43
2022-10-07T07:10:16.098Z,19.48
2022-10-07T07:12:44.517Z,19.53
2022-10-07T07:15:12.846Z,19.58
2022-10-07T07:17:42.210Z,19.63
2022-10-07T07:20:10.973Z,19.69
2022-10-07T07:22:39.307Z,19.69
2022-10-07T07:25:08.267Z,19.74
2022-10-07T07:27:39.572Z,19.74
2022-10-07T07:30:08.431Z,19.75
2022-10-07T07:32:36.414Z,19.69
2022-10-07T07:35:06.561Z,19.82
2022-10-07T07:37:34.509Z,19.81
2022-10-07T07:40:02.647Z,19.74
2022-10-07T07:42:37.321Z,19.80
2022-10-07T07:45:05.907Z,19.64
2022-10-07T07:47:34.147Z,19.93
2022-10-07T07:50:03.436Z,20.04
2022-10-07T07:52:32.906Z,20.12
2022-10-07T07:55:03.174Z,20.20
2022-10-07T07:57:31.477Z,20.19
2022-10-07T07:59:59.344Z,20.25
2022-10-07T08:02:27.230Z,20.27
2022-10-07T08:04:55.296Z,20.27
2022-10-07T08:07:23.208Z,20.26
2022-10-07T08:09:52.627Z,20.23
2022-10-07T08:12:22.259Z,20.21
2022-10-07T08:14:50.199Z,20.22
2022-10-07T08:17:18.067Z,20.18
2022-10-07T08:19:45.972Z,20.24
2022-10-07T08:22:17.857Z,19.96
2022-10-07T08:24:45.961Z,20.36
2022-10-07T08:27:15.456Z,20.37
2022-10-07T08:29:43.391Z,20.44
2022-10-07T08:32:11.429Z,20.50
2022-10-07T08:34:39.463Z,20.58
2022-10-07T08:37:07.451Z,20.67
2022-10-07T08:39:38.509Z,20.79
2022-10-07T08:42:08.714Z,20.95
2022-10-07T08:44:40.095Z,21.08
2022-10-07T08:47:16.034Z,21.12
2022-10-07T08:49:49.388Z,21.21
2022-10-07T08:52:26.305Z,21.23
2022-10-07T08:54:54.204Z,21.27
2022-10-07T08:57:26.476Z,21.33
2022-10-07T08:59:58.080Z,21.34
2022-10-07T09:02:29.783Z,21.32
2022-10-07T09:05:01.794Z,21.23
2022-10-07T09:07:33.873Z,21.33
2022-10-07T09:10:04.574Z,21.27
2022-10-07T09:12:37.936Z,21.18
2022-10-07T09:15:08.499Z,21.25
2022-10-07T09:17:37.474Z,21.24
2022-10-07T09:20:07.136Z,21.36
2022-10-07T09:22:36.276Z,21.50
2022-10-07T09:25:17.173Z,21.53
2022-10-07T09:27:45.361Z,21.60
2022-10-07T09:30:15.532Z,21.57
2022-10-07T09:32:44.796Z,21.55
2022-10-07T09:35:14.079Z,21.44
2022-10-07T09:38:01.913Z,21.34
2022-10-07T09:40:37.599Z,21.37
2022-10-07T09:43:14.173Z,21.48
2022-10-07T09:45:45.555Z,21.73
2022-10-07T09:48:19.333Z,21.89
2022-10-07T09:50:48.168Z,21.93
2022-10-07T09:53:19.180Z,21.92
2022-10-07T09:55:47.068Z,22.03
2022-10-07T09:58:19.454Z,22.07
2022-10-07T10:00:49.525Z,22.42
2022-10-07T10:03:17.447Z,22.54
2022-10-07T10:05:53.446Z,22.69
2022-10-07T10:08:24.541Z,22.65
2022-10-07T10:10:53.347Z,22.77
2022-10-07T10:13:29.565Z,22.91
2022-10-07T10:15:59.337Z,23.04
2022-10-07T10:18:32.844Z,23.01
2022-10-07T10:21:16.545Z,23.12
2022-10-07T10:23:47.098Z,23.03
2022-10-07T10:26:34.154Z,23.09
2022-10-07T10:29:13.983Z,23.18
2022-10-07T10:31:55.047Z,23.24
2022-10-07T10:34:29.648Z,23.31
2022-10-07T10:37:01.370Z,23.34
2022-10-07T10:39:41.901Z,23.59
2022-10-07T10:42:12.027Z,23.68
2022-10-07T10:44:49.669Z,23.81
2022-10-07T10:47:24.087Z,23.93
2022-10-07T10:49:55.867Z,23.99
2022-10-07T10:52:35.514Z,24.02
2022-10-07T10:55:21.715Z,24.02
2022-10-07T10:58:00.038Z,23.79
2022-10-07T11:00:29.818Z,23.78
2022-10-07T11:03:13.911Z,23.59
2022-10-07T11:05:42.592Z,23.62
2022-10-07T11:08:12.569Z,23.77
2022-10-07T11:10:42.135Z,23.96
2022-10-07T11:13:20.475Z,23.75
2022-10-07T11:15:49.442Z,23.88
2022-10-07T11:18:21.872Z,23.73
2022-10-07T11:20:50.348Z,23.88
2022-10-07T11:23:22.425Z,23.96
2022-10-07T11:25:52.611Z,24.31
2022-10-07T11:28:22.619Z,24.46
2022-10-07T11:30:54.542Z,24.68
2022-10-07T11:33:28.740Z,24.85
2022-10-07T11:35:58.572Z,25.21
2022-10-07T11:38:28.327Z,25.29
2022-10-07T11:40:57.311Z,25.31
2022-10-07T11:43:26.609Z,25.23
2022-10-07T11:45:56.342Z,25.17
2022-10-07T11:48:27.270Z,25.06
2022-10-07T11:50:56.331Z,25.16
2022-10-07T11:53:26.586Z,25.10
2022-10-07T11:55:58.404Z,25.09
2022-10-07T11:58:28.087Z,25.00
2022-10-07T12:01:40.850Z,25.01
2022-10-07T12:04:38.315Z,24.80
2022-10-07T12:07:40.703Z,25.02
2022-10-07T12:10:23.330Z,25.15
2022-10-07T12:12:52.740Z,25.51
2022-10-07T12:15:25.853Z,25.71
2022-10-07T12:17:56.790Z,25.46
2022-10-07T12:20:47.803Z,25.50
2022-10-07T12:23:43.884Z,25.64
2022-10-07T12:26:53.829Z,25.72
2022-10-07T12:29:31.481Z,25.98
2022-10-07T12:32:01.719Z,26.32
2022-10-07T12:34:43.525Z,26.43
2022-10-07T12:37:50.174Z,26.49
2022-10-07T12:40:21.063Z,26.39
2022-10-07T12:42:54.804Z,26.04
2022-10-07T12:45:22.941Z,25.54
2022-10-07T12:47:51.220Z,24.96
2022-10-07T12:50:21.854Z,24.42
2022-10-07T12:52:52.973Z,24.01
2022-10-07T12:55:24.789Z,23.61
2022-10-07T12:58:17.427Z,23.08
2022-10-07T13:00:47.905Z,22.36
2022-10-07T13:03:29.082Z,21.76
2022-10-07T13:06:36.259Z,21.33
2022-10-07T13:09:38.566Z,20.97
2022-10-07T13:12:35.913Z,20.77
2022-10-07T13:15:23.821Z,20.54
2022-10-07T13:17:53.451Z,20.08
2022-10-07T13:20:29.312Z,20.25
2022-10-07T13:22:57.227Z,20.17
2022-10-07T13:25:26.424Z,19.98
2022-10-07T13:27:56.475Z,19.78
2022-10-07T13:30:38.806Z,19.61
2022-10-07T13:33:20.613Z,19.48
2022-10-07T13:35:48.656Z,19.50
2022-10-07T13:38:23.847Z,19.51
2022-10-07T13:40:59.697Z,19.50
2022-10-07T13:43:28.263Z,19.48
2022-10-07T13:45:56.191Z,19.49
2022-10-07T13:48:25.176Z,19.56
2022-10-07T13:50:53.213Z,19.53
2022-10-07T13:53:22.505Z,19.58
2022-10-07T13:55:50.451Z,19.58
2022-10-07T13:58:19.800Z,19.59
2022-10-07T14:00:49.043Z,19.57
2022-10-07T14:03:17.503Z,19.52
2022-10-07T14:05:51.449Z,19.52
2022-10-07T14:08:30.593Z,19.58
2022-10-07T14:11:03.236Z,19.59
2022-10-07T14:13:32.641Z,19.68
2022-10-07T14:16:00.673Z,19.69
2022-10-07T14:18:29.836Z,19.64
2022-10-07T14:21:07.618Z,19.60
2022-10-07T14:23:36.327Z,19.81
2022-10-07T14:26:05.057Z,19.93
2022-10-07T14:28:34.600Z,19.98
2022-10-07T14:31:34.358Z,19.96
2022-10-07T14:34:27.893Z,20.04
2022-10-07T14:37:02.876Z,20.12
2022-10-07T14:39:35.203Z,20.17
2022-10-07T14:42:03.581Z,20.21
2022-10-07T14:44:32.847Z,20.34
2022-10-07T14:47:08.066Z,20.44
2022-10-07T14:49:36.361Z,20.81
2022-10-07T14:52:06.241Z,21.16
2022-10-07T14:54:44.306Z,21.57
2022-10-07T14:57:12.178Z,21.99
2022-10-07T14:59:42.173Z,22.22
2022-10-07T15:02:11.233Z,22.24
2022-10-07T15:04:40.312Z,22.09
2022-10-07T15:07:08.328Z,22.02
2022-10-07T15:09:36.264Z,21.94
2022-10-07T15:12:04.264Z,21.82
2022-10-07T15:14:32.121Z,21.74
2022-10-07T15:17:01.570Z,21.81
2022-10-07T15:19:29.570Z,21.93
2022-10-07T15:21:57.464Z,22.08
2022-10-07T15:24:25.552Z,22.22
2022-10-07T15:26:53.665Z,22.42
2022-10-07T15:29:22.559Z,22.48
2022-10-07T15:31:50.461Z,22.57
2022-10-07T15:34:19.979Z,22.43
2022-10-07T15:36:48.693Z,22.18
2022-10-07T15:39:16.563Z,21.95
2022-10-07T15:41:44.824Z,21.72
2022-10-07T15:44:17.580Z,21.54
2022-10-07T15:46:45.999Z,21.41
2022-10-07T15:49:13.937Z,21.29
2022-10-07T15:51:43.357Z,21.17
2022-10-07T15:54:11.430Z,21.06
2022-10-07T15:56:50.205Z,21.06
2022-10-07T15:59:18.137Z,20.96
2022-10-07T16:01:46.404Z,20.85
2022-10-07T16:04:15.277Z,20.95
2022-10-07T16:06:51.277Z,20.91
2022-10-07T16:09:19.318Z,21.01
2022-10-07T16:11:47.685Z,21.12
2022-10-07T16:14:16.061Z,21.19
2022-10-07T16:16:43.956Z,21.12
2022-10-07T16:19:12.678Z,21.06
2022-10-07T16:21:41.884Z,21.00
2022-10-07T16:24:13.868Z,20.78
2022-10-07T16:26:41.868Z,20.87
2022-10-07T16:29:31.121Z,20.84
2022-10-07T16:31:59.427Z,20.73
2022-10-07T16:34:28.354Z,20.53
2022-10-07T16:36:56.739Z,20.52
2022-10-07T16:39:26.125Z,20.51
2022-10-07T16:41:54.957Z,20.39
2022-10-07T16:44:23.686Z,20.35
2022-10-07T16:46:56.503Z,20.29
2022-10-07T16:49:26.172Z,20.22
2022-10-07T16:51:54.365Z,20.01
2022-10-07T16:54:22.606Z,20.02
2022-10-07T16:56:52.658Z,19.94
2022-10-07T16:59:23.220Z,19.86
2022-10-07T17:01:52.296Z,19.74
2022-10-07T17:04:20.506Z,19.71
2022-10-07T17:06:48.759Z,19.64
2022-10-07T17:09:17.879Z,19.52
2022-10-07T17:11:45.731Z,19.47
2022-10-07T17:14:16.715Z,19.34
2022-10-07T17:16:47.263Z,19.35
2022-10-07T17:19:17.538Z,19.26
2022-10-07T17:21:46.372Z,19.29
2022-10-07T17:24:14.388Z,19.19
2022-10-07T17:26:42.342Z,19.25
2022-10-07T17:29:12.889Z,19.13
2022-10-07T17:31:43.543Z,19.25
2022-10-07T17:34:11.653Z,19.27
2022-10-07T17:36:39.942Z,19.31
2022-10-07T17:39:08.007Z,19.34
2022-10-07T17:41:36.725Z,19.35
2022-10-07T17:44:07.117Z,19.29
2022-10-07T17:46:36.490Z,19.27
2022-10-07T17:49:07.361Z,19.25
2022-10-07T17:51:36.488Z,19.29
2022-10-07T17:54:04.841Z,19.29
2022-10-07T17:56:32.954Z,19.23
2022-10-07T17:59:00.832Z,19.25
2022-10-07T18:01:29.659Z,19.13
2022-10-07T18:03:58.567Z,19.24
2022-10-07T18:06:28.840Z,19.24
2022-10-07T18:08:58.977Z,19.26
2022-10-07T18:11:46.945Z,19.27
2022-10-07T18:14:32.620Z,19.28
2022-10-07T18:17:00.548Z,19.24
2022-10-07T18:19:29.563Z,19.21
2022-10-07T18:21:58.916Z,19.18
2022-10-07T18:24:28.134Z,19.18
2022-10-07T18:26:58.406Z,19.17
2022-10-07T18:29:26.266Z,19.18
2022-10-07T18:31:54.232Z,19.18
2022-10-07T18:34:22.252Z,19.17
2022-10-07T18:36:55.238Z,19.12
2022-10-07T18:39:29.086Z,19.11
2022-10-07T18:41:57.405Z,19.12
2022-10-07T18:44:33.046Z,19.11
2022-10-07T18:47:02.733Z,19.05
2022-10-07T18:49:32.159Z,19.00
2022-10-07T18:52:00.854Z,19.01
2022-10-07T18:54:34.772Z,18.90
2022-10-07T18:57:05.791Z,18.97
2022-10-07T18:59:34.970Z,18.93
2022-10-07T19:02:07.272Z,18.99
2022-10-07T19:04:36.034Z,18.99
2022-10-07T19:07:05.354Z,18.95
2022-10-07T19:09:35.298Z,19.02
2022-10-07T19:12:04.271Z,19.04
2022-10-07T19:14:32.850Z,19.03
2022-10-07T19:17:01.119Z,19.03
2022-10-07T19:19:30.277Z,19.05
2022-10-07T19:22:01.941Z,19.04
2022-10-07T19:24:44.272Z,19.06
2022-10-07T19:27:14.666Z,19.06
2022-10-07T19:29:44.626Z,19.04
2022-10-07T19:32:14.718Z,19.04
2022-10-07T19:34:42.869Z,19.01
2022-10-07T19:37:12.028Z,19.02
2022-10-07T19:39:41.220Z,19.03
2022-10-07T19:42:10.578Z,19.03
2022-10-07T19:44:40.624Z,19.00
2022-10-07T19:47:09.216Z,18.99
2022-10-07T19:49:38.729Z,18.94
2022-10-07T19:52:06.987Z,18.86
2022-10-07T19:54:45.627Z,18.81
2022-10-07T19:57:13.677Z,18.75
2022-10-07T19:59:44.141Z,18.70
2022-10-07T20:02:13.980Z,18.67
2022-10-07T20:04:44.955Z,18.68
2022-10-07T20:07:13.167Z,18.67
2022-10-07T20:09:41.933Z,18.65
2022-10-07T20:12:11.293Z,18.63
2022-10-07T20:14:40.612Z,18.64
2022-10-07T20:17:12.145Z,18.65
2022-10-07T20:19:41.071Z,18.68
2022-10-07T20:22:09.849Z,18.70
2022-10-07T20:24:39.375Z,18.70
2022-10-07T20:27:08.657Z,18.74
2022-10-07T20:29:56.927Z,18.76
2022-10-07T20:32:32.590Z,18.87
2022-10-07T20:35:01.649Z,18.91
2022-10-07T20:37:30.398Z,18.83
2022-10-07T20:40:16.382Z,18.75
2022-10-07T20:42:48.707Z,18.67
2022-10-07T20:45:18.591Z,18.56
2022-10-07T20:47:55.291Z,18.52
2022-10-07T20:50:24.582Z,18.45
2022-10-07T20:52:56.234Z,18.46
2022-10-07T20:55:24.955Z,18.43
2022-10-07T20:57:56.312Z,18.40
2022-10-07T21:00:25.085Z,18.37
2022-10-07T21:02:56.035Z,18.35
2022-10-07T21:05:25.655Z,18.35
2022-10-07T21:07:54.947Z,18.09
2022-10-07T21:10:23.270Z,18.37
2022-10-07T21:12:51.950Z,18.40
2022-10-07T21:15:20.598Z,18.40
2022-10-07T21:17:48.975Z,18.40
2022-10-07T21:20:18.829Z,18.42
2022-10-07T21:22:49.070Z,18.40
2022-10-07T21:25:18.563Z,18.31
2022-10-07T21:27:48.321Z,18.30
2022-10-07T21:30:17.364Z,18.26
2022-10-07T21:32:45.878Z,18.22
2022-10-07T21:35:14.226Z,18.15
2022-10-07T21:37:44.292Z,18.18
2022-10-07T21:40:12.802Z,18.16
2022-10-07T21:42:41.169Z,18.14
2022-10-07T21:45:11.257Z,18.17
2022-10-07T21:47:41.533Z,18.19
2022-10-07T21:50:11.832Z,18.33
2022-10-07T21:52:40.105Z,18.35
2022-10-07T21:55:11.275Z,18.39
2022-10-07T21:57:42.745Z,18.38
2022-10-07T22:00:13.781Z,18.35
2022-10-07T22:02:43.632Z,18.31
2022-10-07T22:05:14.401Z,18.28
2022-10-07T22:08:00.107Z,18.27
2022-10-07T22:10:30.331Z,18.27
2022-10-07T22:12:59.353Z,18.28
2022-10-07T22:15:28.702Z,18.27
2022-10-07T22:17:57.252Z,18.24
2022-10-07T22:20:26.130Z,18.22
2022-10-07T22:22:59.096Z,18.19
2022-10-07T22:25:36.850Z,18.16
2022-10-07T22:28:05.040Z,18.13
2022-10-07T22:30:33.124Z,18.09
2022-10-07T22:33:01.554Z,18.11
2022-10-07T22:35:34.334Z,18.15
2022-10-07T22:38:06.708Z,18.18
2022-10-07T22:40:39.846Z,18.23
2022-10-07T22:43:09.454Z,18.18
2022-10-07T22:45:37.686Z,18.23
2022-10-07T22:48:06.668Z,18.17
2022-10-07T22:50:34.757Z,18.12
2022-10-07T22:53:03.206Z,18.06
2022-10-07T22:55:31.942Z,18.01
2022-10-07T22:58:03.138Z,17.91
2022-10-07T23:00:31.519Z,17.84
2022-10-07T23:03:00.505Z,17.83
2022-10-07T23:05:28.650Z,17.78
2022-10-07T23:07:57.117Z,17.66
2022-10-07T23:10:25.725Z,17.66
2022-10-07T23:12:53.668Z,17.68
2022-10-07T23:15:22.886Z,17.68
2022-10-07T23:17:50.933Z,17.67
2022-10-07T23:20:20.091Z,17.62
2022-10-07T23:22:48.321Z,17.61
2022-10-07T23:25:17.259Z,17.58
2022-10-07T23:27:45.431Z,17.54
2022-10-07T23:30:15.196Z,17.51
2022-10-07T23:32:47.655Z,17.44
2022-10-07T23:35:16.536Z,17.43
2022-10-07T23:37:45.103Z,17.48
2022-10-07T23:40:13.431Z,17.45
2022-10-07T23:42:42.027Z,17.47
2022-10-07T23:45:11.478Z,17.46
2022-10-07T23:47:40.313Z,17.46
2022-10-07T23:50:13.262Z,17.44
2022-10-07T23:52:41.681Z,17.39
2022-10-07T23:55:12.351Z,17.38
2022-10-07T23:57:40.513Z,17.36
